Arar current weather conditions

sailwx.info

Wind from 210 at 8 knots

Air temperature 38.0° C
Visibility: greater than 4.9 NM
Dewpoint 12.0° C

Last reported at 2014-Oct-01 12:00 UTC.
Time now 2014-Oct-01 14:28 UTC

Location: N 30°54' E 041°08'.
View on Google Maps.

See reports from other nearby stations

  
Tides and Currents Weather Stations Pressure Air Temp Water Temp Dewpoint Dewpoint Depression Visibility Wind Speed Wind Dir Waves Ship Positions
date/time (UTC)wind fromknots sea level pressurealtimeterstation pressurevisibilityair tempwater tempwave heightnotes
2014-Oct-01 13:00 230 12 4.938.0
2014-Oct-01 12:00 210 8 4.938.0
2014-Oct-01 11:00 160 10 4.938.0
2014-Oct-01 10:00 160 14 3.837.0
2014-Oct-01 09:00 130 14 3.834.0
2014-Oct-01 08:00 120 12 3.832.0
2014-Oct-01 07:00 110 19 4.329.0
2014-Oct-01 06:00 100 14 4.926.0
2014-Oct-01 05:00 050 7 23.0
2014-Oct-01 04:00 050 7 20.0
2014-Oct-01 03:00 050 6 19.0
2014-Oct-01 02:00 070 6 20.0
2014-Oct-01 01:00 060 6 21.0
2014-Oct-01 00:00 090 10 22.0
2014-Sep-30 23:00 090 10 23.0
2014-Sep-30 22:00 090 13 24.0
2014-Sep-30 21:00 090 11 24.0
2014-Sep-30 20:00 080 11 25.0
2014-Sep-30 19:00 080 10 26.0
2014-Sep-30 18:00 070 8 27.0
2014-Sep-30 17:00 080 10 28.0
2014-Sep-30 16:00 100 8 30.0
2014-Sep-30 15:00 130 10 31.0
2014-Sep-30 14:00 130 12 33.0
2014-Sep-30 13:00 130 12 34.0
2014-Sep-30 12:00 100 10 34.0
2014-Sep-30 11:00 110 10 33.0
2014-Sep-30 10:00 110 10 33.0
2014-Sep-30 09:00 090 11 31.0
2014-Sep-30 08:00 100 13 30.0
2014-Sep-30 07:00 100 13 28.0
2014-Sep-30 06:00 080 12 25.0
2014-Sep-30 05:00 080 10 23.0
2014-Sep-30 04:00 040 6 20.0
2014-Sep-30 03:00 050 7 20.0
2014-Sep-30 02:00 040 8 20.0
2014-Sep-30 01:00 040 8 20.0
2014-Sep-30 00:00 040 7 21.0
2014-Sep-29 23:00 030 5 22.0
2014-Sep-29 22:00 050 6 23.0
2014-Sep-29 21:00 060 7 24.0
2014-Sep-29 20:00 050 6 24.0
2014-Sep-29 19:00 040 6 25.0
2014-Sep-29 18:00 030 4 26.0
2014-Sep-29 17:00 020 4 28.0
2014-Sep-29 16:00 030 4 29.0
2014-Sep-29 15:00 360 8 31.0
2014-Sep-29 14:00 010 2 32.0